createdAt,value
2017-08-11T04:31:38.450Z,4.47
2017-08-11T04:34:06.699Z,4.27
2017-08-11T04:36:35.078Z,4.13
2017-08-11T04:39:03.371Z,4.23
2017-08-11T04:41:31.631Z,4.90
2017-08-11T04:44:00.011Z,4.47
2017-08-11T04:46:28.385Z,3.90
2017-08-11T04:48:56.675Z,4.20
2017-08-11T04:51:24.930Z,4.33
2017-08-11T04:53:53.219Z,4.20
2017-08-11T04:56:21.885Z,3.50
2017-08-11T04:58:50.187Z,3.50
2017-08-11T05:01:18.475Z,3.10
2017-08-11T05:03:46.991Z,3.43
2017-08-11T05:06:16.143Z,2.90
2017-08-11T05:08:44.590Z,3.33
2017-08-11T05:11:12.898Z,3.20
2017-08-11T05:13:41.178Z,3.50
2017-08-11T05:16:10.370Z,4.13
2017-08-11T05:18:38.731Z,2.63
2017-08-11T05:21:07.254Z,3.63
2017-08-11T05:23:35.612Z,2.73
2017-08-11T05:26:03.886Z,2.40
2017-08-11T05:28:32.166Z,2.40
2017-08-11T05:31:00.540Z,2.17
2017-08-11T05:33:28.919Z,2.13
2017-08-11T05:35:57.167Z,1.87
2017-08-11T05:38:25.578Z,1.93
2017-08-11T05:40:53.861Z,1.27
2017-08-11T05:43:22.367Z,1.30
2017-08-11T05:45:51.382Z,1.90
2017-08-11T05:48:19.669Z,1.47
2017-08-11T05:50:47.998Z,2.40
2017-08-11T05:53:16.694Z,1.97
2017-08-11T05:55:44.947Z,2.00
2017-08-11T05:58:13.231Z,1.83
2017-08-11T06:00:41.483Z,1.73
2017-08-11T06:03:10.041Z,1.60
2017-08-11T06:05:38.372Z,1.50
2017-08-11T06:08:06.734Z,1.70
2017-08-11T06:10:35.010Z,2.07
2017-08-11T06:13:03.391Z,2.47
2017-08-11T06:15:31.667Z,2.43
2017-08-11T06:17:59.985Z,1.80
2017-08-11T06:20:29.038Z,1.80
2017-08-11T06:22:57.332Z,2.20
2017-08-11T06:25:25.598Z,2.20
2017-08-11T06:27:53.971Z,2.10
2017-08-11T15:00:36.831Z,14.20
2017-08-11T15:03:05.900Z,16.10
2017-08-11T15:05:34.162Z,14.13
2017-08-11T15:08:02.556Z,14.50
2017-08-11T15:10:30.819Z,13.73
2017-08-11T15:12:59.194Z,11.17
2017-08-11T15:15:27.492Z,12.73
2017-08-11T15:17:55.846Z,11.73
2017-08-11T15:20:24.106Z,12.60
2017-08-11T15:22:52.391Z,12.40
2017-08-11T15:25:20.787Z,13.43
2017-08-11T15:27:49.085Z,12.70
2017-08-11T15:30:17.438Z,12.57
2017-08-11T15:32:45.818Z,14.00
2017-08-11T15:35:14.098Z,12.47
2017-08-11T15:37:42.386Z,12.97
2017-08-11T15:40:10.754Z,14.30
2017-08-11T15:42:39.051Z,13.57
2017-08-11T15:45:08.699Z,14.93
2017-08-11T15:47:37.019Z,13.77
2017-08-11T15:50:05.287Z,13.27
2017-08-11T15:52:33.663Z,13.00
2017-08-11T15:55:01.922Z,14.27
2017-08-11T15:57:30.322Z,14.17
2017-08-11T15:59:58.578Z,13.87
2017-08-11T16:02:26.890Z,14.07
2017-08-11T16:04:55.154Z,13.37
2017-08-11T16:07:23.535Z,13.80
2017-08-11T16:09:51.791Z,14.30
2017-08-11T16:12:20.087Z,14.87
2017-08-11T16:14:48.367Z,14.60
2017-08-11T16:17:16.630Z,15.90
2017-08-11T16:19:44.928Z,17.40
2017-08-11T16:22:13.267Z,17.90
2017-08-11T16:24:41.562Z,16.83
2017-08-11T16:27:10.279Z,16.90
2017-08-11T16:29:38.630Z,19.10
2017-08-11T16:32:06.894Z,18.70
2017-08-11T16:34:35.282Z,18.60
2017-08-11T16:37:03.562Z,19.30
2017-08-11T16:39:31.939Z,20.60
2017-08-11T16:42:00.223Z,21.00
2017-08-11T16:44:28.594Z,20.87
2017-08-11T16:46:56.871Z,21.93
2017-08-11T16:49:25.257Z,21.10
2017-08-11T16:51:53.526Z,21.10
2017-08-11T16:54:21.859Z,20.80
2017-08-11T16:56:51.032Z,21.53
2017-08-11T16:59:19.362Z,20.87
2017-08-11T17:01:47.763Z,19.93
2017-08-11T17:04:16.144Z,21.20
2017-08-11T17:06:44.399Z,21.40
2017-08-11T17:09:12.687Z,19.13
2017-08-11T17:11:40.955Z,20.97
2017-08-11T17:14:09.260Z,22.80
2017-08-11T17:16:37.622Z,20.90
2017-08-11T17:19:05.980Z,21.33
2017-08-11T17:21:34.278Z,22.43
2017-08-11T17:24:02.673Z,22.07
2017-08-11T17:26:30.932Z,23.40
2017-08-11T17:28:59.221Z,24.90
2017-08-11T17:31:27.478Z,21.67
2017-08-11T17:33:55.771Z,19.80
2017-08-11T17:36:24.062Z,18.87
2017-08-11T17:38:52.414Z,19.60
2017-08-11T17:41:20.806Z,19.17
2017-08-11T17:43:49.083Z,19.27
2017-08-11T17:46:17.450Z,20.33
2017-08-11T17:48:45.730Z,19.60
2017-08-11T17:51:14.019Z,18.93
2017-08-11T17:53:42.387Z,18.17
2017-08-11T17:56:10.774Z,17.27
2017-08-11T17:58:39.043Z,17.77
2017-08-11T18:01:07.351Z,17.63
2017-08-11T18:03:36.419Z,16.57
2017-08-11T18:06:04.707Z,17.17
2017-08-11T18:08:33.071Z,18.70
2017-08-11T18:11:01.468Z,19.33
2017-08-11T18:13:29.730Z,21.30
2017-08-11T18:15:58.019Z,20.90
2017-08-11T18:18:26.374Z,24.13
2017-08-11T18:20:54.986Z,23.13
2017-08-11T18:23:23.254Z,23.67
2017-08-11T18:25:51.547Z,23.77
2017-08-11T18:28:20.575Z,25.30
2017-08-11T18:30:48.867Z,26.87
2017-08-11T18:33:17.167Z,30.20
2017-08-11T18:35:45.562Z,28.03
2017-08-11T18:38:13.807Z,26.60
2017-08-11T18:40:42.210Z,31.00
2017-08-11T18:43:10.515Z,29.37
2017-08-11T18:45:39.570Z,31.53
2017-08-11T18:48:07.884Z,28.80
2017-08-11T18:50:36.923Z,30.10
2017-08-11T18:53:05.260Z,32.30
2017-08-11T18:55:34.327Z,30.00
2017-08-11T18:58:02.694Z,28.30
2017-08-11T19:00:31.002Z,30.23
2017-08-11T19:03:00.079Z,27.47
2017-08-11T19:05:28.378Z,31.17
2017-08-11T19:07:57.444Z,28.10
2017-08-11T19:10:25.747Z,28.90
2017-08-11T19:12:54.824Z,29.60
2017-08-11T19:15:23.196Z,27.10
2017-08-11T19:17:51.469Z,26.43
2017-08-11T19:20:19.864Z,30.10
2017-08-11T19:22:48.903Z,28.90
2017-08-11T19:25:17.222Z,28.70
2017-08-11T19:27:45.525Z,32.20
2017-08-11T19:30:14.599Z,32.13
2017-08-11T19:32:42.879Z,31.97
2017-08-11T19:35:11.207Z,31.83
2017-08-11T19:37:39.508Z,30.60
2017-08-11T19:40:07.773Z,32.67
2017-08-11T19:42:36.085Z,34.77
2017-08-11T19:45:04.355Z,35.80
2017-08-11T19:47:32.745Z,33.23
2017-08-11T19:50:01.028Z,32.60
2017-08-11T19:52:29.388Z,34.80
2017-08-11T19:54:57.702Z,37.10
2017-08-11T19:57:27.187Z,36.63
2017-08-11T19:59:55.664Z,37.27
2017-08-11T20:02:24.676Z,36.63
2017-08-11T20:04:54.654Z,38.30
2017-08-11T20:07:23.017Z,37.87
2017-08-11T20:09:51.281Z,40.33
2017-08-11T20:12:20.259Z,38.77
2017-08-11T20:14:49.288Z,37.83
2017-08-11T20:17:17.691Z,35.13
2017-08-11T20:19:45.988Z,39.57
2017-08-11T20:22:15.019Z,38.43
2017-08-11T20:24:43.315Z,36.83
2017-08-11T20:27:11.623Z,36.97
2017-08-11T20:29:39.905Z,33.93
2017-08-11T20:32:09.024Z,34.27
2017-08-11T20:34:37.366Z,30.80
2017-08-11T20:37:05.643Z,32.73
2017-08-11T20:39:33.934Z,34.87
2017-08-11T20:42:03.007Z,31.40
2017-08-11T20:44:31.303Z,29.50
2017-08-11T20:47:00.484Z,30.40
2017-08-11T20:49:28.871Z,27.50
2017-08-11T20:51:57.235Z,29.13
2017-08-11T20:54:25.616Z,30.37
2017-08-11T20:56:53.889Z,30.60
2017-08-11T20:59:22.380Z,30.37
2017-08-11T21:01:50.661Z,30.23
2017-08-11T21:04:18.966Z,33.00
2017-08-11T21:06:47.241Z,32.63
2017-08-11T21:09:16.303Z,32.83
2017-08-11T21:11:44.671Z,33.10
2017-08-11T21:14:13.066Z,32.10
2017-08-11T21:16:41.324Z,35.20
2017-08-11T21:19:09.615Z,32.80
2017-08-11T21:21:37.918Z,33.27
2017-08-11T21:24:07.193Z,31.70
2017-08-11T21:26:35.465Z,29.00
2017-08-11T21:29:03.767Z,30.67
2017-08-11T21:31:32.043Z,30.83
2017-08-11T21:34:01.126Z,29.77
2017-08-11T21:36:29.379Z,30.47
2017-08-11T21:38:57.670Z,30.43
2017-08-11T21:41:25.927Z,27.60
2017-08-11T21:43:54.224Z,29.70
2017-08-11T21:46:22.587Z,27.90
2017-08-11T21:48:50.967Z,26.73
2017-08-11T21:51:19.238Z,27.33
2017-08-11T21:53:47.535Z,24.03
2017-08-11T21:56:15.915Z,27.60
2017-08-11T21:58:44.270Z,25.43
2017-08-11T22:01:12.650Z,25.60
2017-08-11T22:03:41.032Z,25.23
2017-08-11T22:06:09.411Z,23.67
2017-08-11T22:08:37.686Z,23.50
2017-08-11T22:11:05.974Z,24.13
2017-08-11T22:13:34.574Z,21.60
2017-08-11T22:16:02.875Z,22.03
2017-08-11T22:18:31.203Z,20.37
2017-08-11T22:20:59.479Z,21.63
2017-08-11T22:23:28.090Z,22.87
2017-08-11T22:25:56.427Z,23.60
2017-08-11T22:28:25.631Z,23.93
2017-08-11T22:30:54.023Z,23.77
2017-08-11T22:33:22.279Z,23.10
2017-08-11T22:35:50.575Z,21.67
2017-08-11T22:38:18.846Z,20.43
2017-08-11T22:40:47.135Z,20.00
2017-08-11T22:43:15.438Z,20.20
2017-08-11T22:45:44.831Z,18.17
2017-08-11T22:48:13.182Z,19.83
2017-08-11T22:50:41.479Z,21.77
2017-08-11T22:53:09.739Z,20.80
2017-08-11T22:55:38.123Z,21.13
2017-08-11T22:58:06.723Z,18.90
2017-08-11T23:00:35.182Z,20.80
2017-08-11T23:03:03.459Z,18.60
2017-08-11T23:05:31.752Z,19.30
2017-08-11T23:08:00.035Z,19.90
2017-08-11T23:10:28.334Z,17.30
2017-08-11T23:12:56.662Z,18.30
